sensor_id;sensor_type;location;lat;lon;timestamp;P1;durP1;ratioP1;P2;durP2;ratioP2
39728;SDS011;25402;42.004;23.088;2022-09-17T00:00:27;17.17;;;3.58;;
39728;SDS011;25402;42.004;23.088;2022-09-17T00:02:56;15.48;;;3.70;;
39728;SDS011;25402;42.004;23.088;2022-09-17T00:05:23;8.57;;;3.30;;
39728;SDS011;25402;42.004;23.088;2022-09-17T00:07:50;12.15;;;2.90;;
39728;SDS011;25402;42.004;23.088;2022-09-17T00:10:20;16.13;;;3.20;;
39728;SDS011;25402;42.004;23.088;2022-09-17T00:12:48;15.60;;;3.50;;
39728;SDS011;25402;42.004;23.088;2022-09-17T00:15:16;13.98;;;3.38;;
39728;SDS011;25402;42.004;23.088;2022-09-17T00:17:43;10.13;;;3.70;;
39728;SDS011;25402;42.004;23.088;2022-09-17T00:20:10;15.57;;;2.88;;
39728;SDS011;25402;42.004;23.088;2022-09-17T00:22:37;11.18;;;3.35;;
39728;SDS011;25402;42.004;23.088;2022-09-17T00:25:05;12.95;;;2.92;;
39728;SDS011;25402;42.004;23.088;2022-09-17T00:27:35;9.73;;;2.40;;
39728;SDS011;25402;42.004;23.088;2022-09-17T00:30:03;20.30;;;3.47;;
39728;SDS011;25402;42.004;23.088;2022-09-17T00:32:30;10.07;;;3.20;;
39728;SDS011;25402;42.004;23.088;2022-09-17T00:34:57;13.73;;;3.55;;
39728;SDS011;25402;42.004;23.088;2022-09-17T00:37:24;18.67;;;3.38;;
39728;SDS011;25402;42.004;23.088;2022-09-17T00:39:51;17.13;;;3.10;;
39728;SDS011;25402;42.004;23.088;2022-09-17T00:42:19;9.82;;;2.92;;
39728;SDS011;25402;42.004;23.088;2022-09-17T00:44:49;12.25;;;2.90;;
39728;SDS011;25402;42.004;23.088;2022-09-17T00:47:26;15.70;;;3.25;;
39728;SDS011;25402;42.004;23.088;2022-09-17T00:49:56;15.00;;;3.00;;
39728;SDS011;25402;42.004;23.088;2022-09-17T00:52:28;15.77;;;3.00;;
39728;SDS011;25402;42.004;23.088;2022-09-17T00:55:00;13.88;;;3.22;;
39728;SDS011;25402;42.004;23.088;2022-09-17T00:57:33;14.18;;;3.05;;
39728;SDS011;25402;42.004;23.088;2022-09-17T01:00:02;15.65;;;3.30;;
39728;SDS011;25402;42.004;23.088;2022-09-17T01:02:30;19.33;;;3.17;;
39728;SDS011;25402;42.004;23.088;2022-09-17T01:04:57;20.17;;;3.38;;
39728;SDS011;25402;42.004;23.088;2022-09-17T01:07:33;14.10;;;3.15;;
39728;SDS011;25402;42.004;23.088;2022-09-17T01:10:14;18.20;;;3.50;;
39728;SDS011;25402;42.004;23.088;2022-09-17T01:13:00;9.00;;;2.90;;
39728;SDS011;25402;42.004;23.088;2022-09-17T01:15:40;10.02;;;3.20;;
39728;SDS011;25402;42.004;23.088;2022-09-17T01:18:15;11.27;;;3.22;;
39728;SDS011;25402;42.004;23.088;2022-09-17T01:21:03;12.48;;;2.80;;
39728;SDS011;25402;42.004;23.088;2022-09-17T01:30:05;9.52;;;2.92;;
39728;SDS011;25402;42.004;23.088;2022-09-17T01:32:48;14.02;;;2.90;;
39728;SDS011;25402;42.004;23.088;2022-09-17T01:37:53;9.55;;;2.83;;
39728;SDS011;25402;42.004;23.088;2022-09-17T01:40:28;10.90;;;3.20;;
39728;SDS011;25402;42.004;23.088;2022-09-17T01:43:03;8.85;;;3.65;;
39728;SDS011;25402;42.004;23.088;2022-09-17T01:45:34;16.42;;;3.65;;
39728;SDS011;25402;42.004;23.088;2022-09-17T01:48:08;18.17;;;3.80;;
39728;SDS011;25402;42.004;23.088;2022-09-17T01:50:40;10.73;;;3.60;;
39728;SDS011;25402;42.004;23.088;2022-09-17T01:53:11;11.65;;;3.70;;
39728;SDS011;25402;42.004;23.088;2022-09-17T01:55:41;12.93;;;3.83;;
39728;SDS011;25402;42.004;23.088;2022-09-17T01:58:14;17.83;;;4.10;;
39728;SDS011;25402;42.004;23.088;2022-09-17T02:03:24;14.85;;;3.75;;
39728;SDS011;25402;42.004;23.088;2022-09-17T02:05:57;15.43;;;3.97;;
39728;SDS011;25402;42.004;23.088;2022-09-17T02:08:28;9.40;;;3.35;;
39728;SDS011;25402;42.004;23.088;2022-09-17T02:11:03;18.42;;;4.05;;
39728;SDS011;25402;42.004;23.088;2022-09-17T02:13:35;12.07;;;4.00;;
39728;SDS011;25402;42.004;23.088;2022-09-17T02:16:09;17.23;;;3.70;;
39728;SDS011;25402;42.004;23.088;2022-09-17T02:18:43;11.82;;;3.50;;
39728;SDS011;25402;42.004;23.088;2022-09-17T02:21:16;7.93;;;3.10;;
39728;SDS011;25402;42.004;23.088;2022-09-17T02:23:51;13.25;;;3.75;;
39728;SDS011;25402;42.004;23.088;2022-09-17T02:26:23;11.18;;;3.53;;
39728;SDS011;25402;42.004;23.088;2022-09-17T02:28:53;16.50;;;4.03;;
39728;SDS011;25402;42.004;23.088;2022-09-17T02:31:24;14.13;;;3.80;;
39728;SDS011;25402;42.004;23.088;2022-09-17T02:33:54;19.42;;;3.20;;
39728;SDS011;25402;42.004;23.088;2022-09-17T02:36:27;11.93;;;3.40;;
39728;SDS011;25402;42.004;23.088;2022-09-17T02:38:57;11.88;;;3.13;;
39728;SDS011;25402;42.004;23.088;2022-09-17T02:41:29;13.00;;;3.53;;
39728;SDS011;25402;42.004;23.088;2022-09-17T02:44:07;10.60;;;3.53;;
39728;SDS011;25402;42.004;23.088;2022-09-17T02:49:26;26.85;;;5.53;;
39728;SDS011;25402;42.004;23.088;2022-09-17T02:52:09;33.75;;;4.90;;
39728;SDS011;25402;42.004;23.088;2022-09-17T02:54:48;24.13;;;4.35;;
39728;SDS011;25402;42.004;23.088;2022-09-17T02:57:25;20.55;;;4.07;;
39728;SDS011;25402;42.004;23.088;2022-09-17T03:02:34;12.88;;;4.10;;
39728;SDS011;25402;42.004;23.088;2022-09-17T03:05:08;19.27;;;3.28;;
39728;SDS011;25402;42.004;23.088;2022-09-17T03:07:37;15.75;;;3.45;;
39728;SDS011;25402;42.004;23.088;2022-09-17T03:10:04;23.65;;;3.72;;
39728;SDS011;25402;42.004;23.088;2022-09-17T03:12:32;15.50;;;4.10;;
39728;SDS011;25402;42.004;23.088;2022-09-17T03:15:00;15.15;;;4.45;;
39728;SDS011;25402;42.004;23.088;2022-09-17T03:17:28;15.85;;;3.95;;
39728;SDS011;25402;42.004;23.088;2022-09-17T03:19:55;12.20;;;3.55;;
39728;SDS011;25402;42.004;23.088;2022-09-17T03:22:23;11.30;;;3.40;;
39728;SDS011;25402;42.004;23.088;2022-09-17T03:24:50;16.45;;;3.65;;
39728;SDS011;25402;42.004;23.088;2022-09-17T03:27:17;10.50;;;3.33;;
39728;SDS011;25402;42.004;23.088;2022-09-17T03:29:44;19.75;;;3.50;;
39728;SDS011;25402;42.004;23.088;2022-09-17T03:32:11;12.93;;;3.90;;
39728;SDS011;25402;42.004;23.088;2022-09-17T03:34:41;14.82;;;3.58;;
39728;SDS011;25402;42.004;23.088;2022-09-17T03:37:11;14.10;;;3.90;;
39728;SDS011;25402;42.004;23.088;2022-09-17T03:39:41;16.10;;;3.97;;
39728;SDS011;25402;42.004;23.088;2022-09-17T03:42:08;8.98;;;3.97;;
39728;SDS011;25402;42.004;23.088;2022-09-17T03:44:35;15.02;;;3.47;;
39728;SDS011;25402;42.004;23.088;2022-09-17T03:47:02;10.20;;;3.53;;
39728;SDS011;25402;42.004;23.088;2022-09-17T03:49:29;22.08;;;3.67;;
39728;SDS011;25402;42.004;23.088;2022-09-17T03:51:56;14.75;;;4.47;;
39728;SDS011;25402;42.004;23.088;2022-09-17T03:54:23;13.00;;;4.50;;
39728;SDS011;25402;42.004;23.088;2022-09-17T03:56:52;16.33;;;4.28;;
39728;SDS011;25402;42.004;23.088;2022-09-17T03:59:19;14.98;;;2.88;;
39728;SDS011;25402;42.004;23.088;2022-09-17T04:04:22;7.47;;;3.13;;
39728;SDS011;25402;42.004;23.088;2022-09-17T04:06:50;32.92;;;3.53;;
39728;SDS011;25402;42.004;23.088;2022-09-17T04:09:17;12.23;;;2.55;;
39728;SDS011;25402;42.004;23.088;2022-09-17T04:11:44;6.43;;;2.10;;
39728;SDS011;25402;42.004;23.088;2022-09-17T04:14:12;10.82;;;2.40;;
39728;SDS011;25402;42.004;23.088;2022-09-17T04:16:40;10.18;;;3.17;;
39728;SDS011;25402;42.004;23.088;2022-09-17T04:19:07;15.13;;;3.47;;
39728;SDS011;25402;42.004;23.088;2022-09-17T04:21:34;16.20;;;3.80;;
39728;SDS011;25402;42.004;23.088;2022-09-17T04:24:01;9.10;;;3.10;;
39728;SDS011;25402;42.004;23.088;2022-09-17T04:26:28;9.60;;;3.28;;
39728;SDS011;25402;42.004;23.088;2022-09-17T04:28:55;9.93;;;3.35;;
39728;SDS011;25402;42.004;23.088;2022-09-17T04:31:26;20.20;;;4.80;;
39728;SDS011;25402;42.004;23.088;2022-09-17T04:33:53;11.57;;;2.95;;
39728;SDS011;25402;42.004;23.088;2022-09-17T04:36:20;6.78;;;2.50;;
39728;SDS011;25402;42.004;23.088;2022-09-17T04:38:48;9.88;;;4.18;;
39728;SDS011;25402;42.004;23.088;2022-09-17T04:41:15;104.72;;;37.75;;
39728;SDS011;25402;42.004;23.088;2022-09-17T04:43:42;69.57;;;26.10;;
39728;SDS011;25402;42.004;23.088;2022-09-17T04:46:09;40.45;;;14.88;;
39728;SDS011;25402;42.004;23.088;2022-09-17T04:48:39;63.72;;;18.98;;
39728;SDS011;25402;42.004;23.088;2022-09-17T04:51:06;41.88;;;9.60;;
39728;SDS011;25402;42.004;23.088;2022-09-17T04:53:33;22.27;;;6.40;;
39728;SDS011;25402;42.004;23.088;2022-09-17T04:56:01;11.57;;;4.03;;
39728;SDS011;25402;42.004;23.088;2022-09-17T04:58:28;29.08;;;8.52;;
39728;SDS011;25402;42.004;23.088;2022-09-17T05:00:58;22.73;;;7.15;;
39728;SDS011;25402;42.004;23.088;2022-09-17T05:03:26;20.05;;;5.38;;
39728;SDS011;25402;42.004;23.088;2022-09-17T05:05:55;22.42;;;6.82;;
39728;SDS011;25402;42.004;23.088;2022-09-17T05:08:22;22.23;;;5.45;;
39728;SDS011;25402;42.004;23.088;2022-09-17T05:10:49;15.35;;;4.82;;
39728;SDS011;25402;42.004;23.088;2022-09-17T05:13:17;18.02;;;4.15;;
39728;SDS011;25402;42.004;23.088;2022-09-17T05:15:45;18.30;;;3.85;;
39728;SDS011;25402;42.004;23.088;2022-09-17T05:18:13;15.27;;;4.32;;
39728;SDS011;25402;42.004;23.088;2022-09-17T05:20:40;24.88;;;4.43;;
39728;SDS011;25402;42.004;23.088;2022-09-17T05:23:10;14.77;;;4.13;;
39728;SDS011;25402;42.004;23.088;2022-09-17T05:25:37;13.68;;;4.13;;
39728;SDS011;25402;42.004;23.088;2022-09-17T05:28:04;16.20;;;4.30;;
39728;SDS011;25402;42.004;23.088;2022-09-17T05:30:31;26.73;;;4.45;;
39728;SDS011;25402;42.004;23.088;2022-09-17T05:32:59;15.50;;;5.00;;
39728;SDS011;25402;42.004;23.088;2022-09-17T05:35:26;19.83;;;4.47;;
39728;SDS011;25402;42.004;23.088;2022-09-17T05:37:57;13.60;;;4.80;;
39728;SDS011;25402;42.004;23.088;2022-09-17T05:40:27;12.05;;;4.55;;
39728;SDS011;25402;42.004;23.088;2022-09-17T05:42:57;13.95;;;5.20;;
39728;SDS011;25402;42.004;23.088;2022-09-17T05:45:25;26.17;;;10.05;;
39728;SDS011;25402;42.004;23.088;2022-09-17T05:47:55;17.17;;;6.57;;
39728;SDS011;25402;42.004;23.088;2022-09-17T05:50:24;17.70;;;5.07;;
39728;SDS011;25402;42.004;23.088;2022-09-17T05:53:04;16.15;;;6.03;;
39728;SDS011;25402;42.004;23.088;2022-09-17T05:55:34;15.90;;;5.05;;
39728;SDS011;25402;42.004;23.088;2022-09-17T05:58:07;13.70;;;4.70;;
39728;SDS011;25402;42.004;23.088;2022-09-17T06:00:35;17.15;;;6.05;;
39728;SDS011;25402;42.004;23.088;2022-09-17T06:03:02;16.00;;;5.13;;
39728;SDS011;25402;42.004;23.088;2022-09-17T06:05:29;16.35;;;5.20;;
39728;SDS011;25402;42.004;23.088;2022-09-17T06:07:56;9.55;;;4.50;;
39728;SDS011;25402;42.004;23.088;2022-09-17T06:10:23;13.98;;;5.10;;
39728;SDS011;25402;42.004;23.088;2022-09-17T06:12:55;19.30;;;4.50;;
39728;SDS011;25402;42.004;23.088;2022-09-17T06:15:22;16.38;;;5.07;;
39728;SDS011;25402;42.004;23.088;2022-09-17T06:17:49;11.70;;;4.18;;
39728;SDS011;25402;42.004;23.088;2022-09-17T06:20:16;16.77;;;4.63;;
39728;SDS011;25402;42.004;23.088;2022-09-17T06:22:44;11.35;;;4.68;;
39728;SDS011;25402;42.004;23.088;2022-09-17T06:25:11;12.25;;;4.30;;
39728;SDS011;25402;42.004;23.088;2022-09-17T06:27:38;13.55;;;5.20;;
39728;SDS011;25402;42.004;23.088;2022-09-17T06:30:07;21.50;;;6.15;;
39728;SDS011;25402;42.004;23.088;2022-09-17T06:32:34;19.15;;;6.18;;
39728;SDS011;25402;42.004;23.088;2022-09-17T06:35:01;20.60;;;6.47;;
39728;SDS011;25402;42.004;23.088;2022-09-17T06:37:29;16.85;;;6.13;;
39728;SDS011;25402;42.004;23.088;2022-09-17T06:39:57;18.13;;;5.82;;
39728;SDS011;25402;42.004;23.088;2022-09-17T06:42:25;16.85;;;4.55;;
39728;SDS011;25402;42.004;23.088;2022-09-17T06:44:55;13.13;;;5.15;;
39728;SDS011;25402;42.004;23.088;2022-09-17T06:47:24;17.38;;;5.88;;
39728;SDS011;25402;42.004;23.088;2022-09-17T06:49:51;16.42;;;5.38;;
39728;SDS011;25402;42.004;23.088;2022-09-17T06:52:21;17.05;;;4.55;;
39728;SDS011;25402;42.004;23.088;2022-09-17T06:54:48;10.70;;;3.95;;
39728;SDS011;25402;42.004;23.088;2022-09-17T06:57:15;19.45;;;4.13;;
39728;SDS011;25402;42.004;23.088;2022-09-17T06:59:42;16.83;;;4.30;;
39728;SDS011;25402;42.004;23.088;2022-09-17T07:02:09;16.15;;;6.22;;
39728;SDS011;25402;42.004;23.088;2022-09-17T07:04:37;16.05;;;5.38;;
39728;SDS011;25402;42.004;23.088;2022-09-17T07:07:05;13.63;;;5.60;;
39728;SDS011;25402;42.004;23.088;2022-09-17T07:09:33;16.52;;;5.20;;
39728;SDS011;25402;42.004;23.088;2022-09-17T07:12:00;15.98;;;5.22;;
39728;SDS011;25402;42.004;23.088;2022-09-17T07:14:27;12.50;;;4.43;;
39728;SDS011;25402;42.004;23.088;2022-09-17T07:16:54;12.65;;;4.18;;
39728;SDS011;25402;42.004;23.088;2022-09-17T07:19:22;17.77;;;4.50;;
39728;SDS011;25402;42.004;23.088;2022-09-17T07:21:51;14.02;;;5.30;;
39728;SDS011;25402;42.004;23.088;2022-09-17T07:24:18;15.50;;;5.22;;
39728;SDS011;25402;42.004;23.088;2022-09-17T07:26:44;19.10;;;4.97;;
39728;SDS011;25402;42.004;23.088;2022-09-17T07:29:11;16.02;;;5.22;;
39728;SDS011;25402;42.004;23.088;2022-09-17T07:31:38;18.30;;;5.45;;
39728;SDS011;25402;42.004;23.088;2022-09-17T07:34:05;15.73;;;4.63;;
39728;SDS011;25402;42.004;23.088;2022-09-17T07:36:32;16.20;;;5.53;;
39728;SDS011;25402;42.004;23.088;2022-09-17T07:39:01;16.27;;;4.75;;
39728;SDS011;25402;42.004;23.088;2022-09-17T07:41:27;16.50;;;4.95;;
39728;SDS011;25402;42.004;23.088;2022-09-17T07:43:54;12.07;;;4.43;;
39728;SDS011;25402;42.004;23.088;2022-09-17T07:46:21;13.57;;;4.40;;
39728;SDS011;25402;42.004;23.088;2022-09-17T07:48:49;17.65;;;4.90;;
39728;SDS011;25402;42.004;23.088;2022-09-17T07:51:16;17.25;;;5.63;;
39728;SDS011;25402;42.004;23.088;2022-09-17T07:53:44;15.70;;;4.93;;
39728;SDS011;25402;42.004;23.088;2022-09-17T07:56:13;21.50;;;4.85;;
39728;SDS011;25402;42.004;23.088;2022-09-17T07:58:40;15.10;;;4.47;;
39728;SDS011;25402;42.004;23.088;2022-09-17T08:01:08;10.82;;;4.20;;
39728;SDS011;25402;42.004;23.088;2022-09-17T08:03:37;19.17;;;4.68;;
39728;SDS011;25402;42.004;23.088;2022-09-17T08:06:05;11.13;;;3.90;;
39728;SDS011;25402;42.004;23.088;2022-09-17T08:08:35;27.27;;;5.35;;
39728;SDS011;25402;42.004;23.088;2022-09-17T08:11:03;15.30;;;3.88;;
39728;SDS011;25402;42.004;23.088;2022-09-17T08:13:32;16.90;;;3.50;;
39728;SDS011;25402;42.004;23.088;2022-09-17T08:16:01;11.80;;;3.67;;
39728;SDS011;25402;42.004;23.088;2022-09-17T08:18:29;10.98;;;3.53;;
39728;SDS011;25402;42.004;23.088;2022-09-17T08:20:57;19.33;;;3.47;;
39728;SDS011;25402;42.004;23.088;2022-09-17T08:23:25;9.52;;;3.13;;
39728;SDS011;25402;42.004;23.088;2022-09-17T08:25:53;7.22;;;2.90;;
39728;SDS011;25402;42.004;23.088;2022-09-17T08:28:21;8.32;;;3.42;;
39728;SDS011;25402;42.004;23.088;2022-09-17T08:30:51;18.38;;;4.35;;
39728;SDS011;25402;42.004;23.088;2022-09-17T08:33:19;9.73;;;3.75;;
39728;SDS011;25402;42.004;23.088;2022-09-17T08:35:49;14.68;;;3.88;;
39728;SDS011;25402;42.004;23.088;2022-09-17T08:38:17;15.40;;;4.45;;
39728;SDS011;25402;42.004;23.088;2022-09-17T08:40:49;21.83;;;3.60;;
39728;SDS011;25402;42.004;23.088;2022-09-17T08:43:26;15.32;;;4.03;;
39728;SDS011;25402;42.004;23.088;2022-09-17T08:45:55;16.08;;;4.05;;
39728;SDS011;25402;42.004;23.088;2022-09-17T08:48:24;20.88;;;4.53;;
39728;SDS011;25402;42.004;23.088;2022-09-17T08:50:56;15.80;;;4.10;;
39728;SDS011;25402;42.004;23.088;2022-09-17T08:53:35;13.70;;;3.72;;
39728;SDS011;25402;42.004;23.088;2022-09-17T08:56:12;14.05;;;4.63;;
39728;SDS011;25402;42.004;23.088;2022-09-17T08:58:59;11.45;;;4.30;;
39728;SDS011;25402;42.004;23.088;2022-09-17T09:01:36;13.43;;;4.18;;
39728;SDS011;25402;42.004;23.088;2022-09-17T09:04:14;31.75;;;9.93;;
39728;SDS011;25402;42.004;23.088;2022-09-17T09:07:12;26.77;;;10.02;;
39728;SDS011;25402;42.004;23.088;2022-09-17T09:09:45;21.05;;;9.70;;
39728;SDS011;25402;42.004;23.088;2022-09-17T09:12:17;25.70;;;9.68;;
39728;SDS011;25402;42.004;23.088;2022-09-17T09:14:50;22.20;;;8.30;;
39728;SDS011;25402;42.004;23.088;2022-09-17T09:17:24;19.40;;;7.30;;
39728;SDS011;25402;42.004;23.088;2022-09-17T09:19:57;20.80;;;6.63;;
39728;SDS011;25402;42.004;23.088;2022-09-17T09:22:28;19.52;;;6.60;;
39728;SDS011;25402;42.004;23.088;2022-09-17T09:25:09;25.42;;;10.15;;
39728;SDS011;25402;42.004;23.088;2022-09-17T09:27:46;19.30;;;6.25;;
39728;SDS011;25402;42.004;23.088;2022-09-17T09:30:22;15.98;;;4.85;;
39728;SDS011;25402;42.004;23.088;2022-09-17T09:32:53;10.45;;;2.85;;
39728;SDS011;25402;42.004;23.088;2022-09-17T09:35:25;13.50;;;2.78;;
39728;SDS011;25402;42.004;23.088;2022-09-17T09:37:56;19.95;;;3.97;;
39728;SDS011;25402;42.004;23.088;2022-09-17T09:40:36;19.33;;;4.18;;
39728;SDS011;25402;42.004;23.088;2022-09-17T09:43:14;12.95;;;3.22;;
39728;SDS011;25402;42.004;23.088;2022-09-17T09:45:58;17.40;;;4.00;;
39728;SDS011;25402;42.004;23.088;2022-09-17T09:48:40;10.77;;;3.03;;
39728;SDS011;25402;42.004;23.088;2022-09-17T09:51:15;7.28;;;2.70;;
39728;SDS011;25402;42.004;23.088;2022-09-17T09:53:59;11.13;;;2.58;;
39728;SDS011;25402;42.004;23.088;2022-09-17T09:56:45;15.00;;;3.20;;
39728;SDS011;25402;42.004;23.088;2022-09-17T09:59:21;11.82;;;2.30;;
39728;SDS011;25402;42.004;23.088;2022-09-17T10:01:48;7.82;;;1.85;;
39728;SDS011;25402;42.004;23.088;2022-09-17T10:04:18;13.48;;;2.83;;
39728;SDS011;25402;42.004;23.088;2022-09-17T10:06:48;6.72;;;2.00;;
39728;SDS011;25402;42.004;23.088;2022-09-17T10:09:19;8.88;;;2.40;;
39728;SDS011;25402;42.004;23.088;2022-09-17T10:12:01;8.70;;;2.10;;
39728;SDS011;25402;42.004;23.088;2022-09-17T10:14:44;7.82;;;2.08;;
39728;SDS011;25402;42.004;23.088;2022-09-17T10:17:16;5.32;;;2.20;;
39728;SDS011;25402;42.004;23.088;2022-09-17T10:22:40;8.75;;;1.77;;
39728;SDS011;25402;42.004;23.088;2022-09-17T10:25:19;7.55;;;1.95;;
39728;SDS011;25402;42.004;23.088;2022-09-17T10:27:53;7.70;;;1.95;;
39728;SDS011;25402;42.004;23.088;2022-09-17T10:30:22;9.85;;;2.40;;
39728;SDS011;25402;42.004;23.088;2022-09-17T10:35:53;4.88;;;2.08;;
39728;SDS011;25402;42.004;23.088;2022-09-17T10:38:36;5.88;;;1.92;;
39728;SDS011;25402;42.004;23.088;2022-09-17T10:41:08;10.02;;;2.10;;
39728;SDS011;25402;42.004;23.088;2022-09-17T10:43:37;5.90;;;2.05;;
39728;SDS011;25402;42.004;23.088;2022-09-17T10:46:06;6.25;;;1.90;;
39728;SDS011;25402;42.004;23.088;2022-09-17T10:48:37;6.38;;;1.63;;
39728;SDS011;25402;42.004;23.088;2022-09-17T10:51:09;9.57;;;1.77;;
39728;SDS011;25402;42.004;23.088;2022-09-17T10:56:34;7.63;;;1.67;;
39728;SDS011;25402;42.004;23.088;2022-09-17T10:59:08;6.57;;;1.38;;
39728;SDS011;25402;42.004;23.088;2022-09-17T11:01:50;4.05;;;1.40;;
39728;SDS011;25402;42.004;23.088;2022-09-17T11:04:28;3.28;;;1.25;;
39728;SDS011;25402;42.004;23.088;2022-09-17T11:10:10;10.35;;;1.75;;
39728;SDS011;25402;42.004;23.088;2022-09-17T11:12:52;5.30;;;1.55;;
39728;SDS011;25402;42.004;23.088;2022-09-17T11:15:36;3.13;;;1.48;;
39728;SDS011;25402;42.004;23.088;2022-09-17T11:18:30;1.70;;;1.48;;
39728;SDS011;25402;42.004;23.088;2022-09-17T11:21:15;6.57;;;2.00;;
39728;SDS011;25402;42.004;23.088;2022-09-17T11:23:57;6.65;;;2.08;;
39728;SDS011;25402;42.004;23.088;2022-09-17T11:26:52;6.57;;;2.17;;
39728;SDS011;25402;42.004;23.088;2022-09-17T11:29:39;3.05;;;1.50;;
39728;SDS011;25402;42.004;23.088;2022-09-17T11:32:25;4.22;;;1.65;;
39728;SDS011;25402;42.004;23.088;2022-09-17T11:35:09;4.53;;;1.50;;
39728;SDS011;25402;42.004;23.088;2022-09-17T11:37:41;2.92;;;1.33;;
39728;SDS011;25402;42.004;23.088;2022-09-17T11:40:16;4.63;;;1.50;;
39728;SDS011;25402;42.004;23.088;2022-09-17T11:42:48;5.07;;;1.48;;
39728;SDS011;25402;42.004;23.088;2022-09-17T11:45:19;15.30;;;1.70;;
39728;SDS011;25402;42.004;23.088;2022-09-17T11:47:52;4.28;;;1.42;;
39728;SDS011;25402;42.004;23.088;2022-09-17T11:50:24;7.00;;;1.83;;
39728;SDS011;25402;42.004;23.088;2022-09-17T11:52:59;5.32;;;1.48;;
39728;SDS011;25402;42.004;23.088;2022-09-17T11:55:38;4.50;;;1.65;;
39728;SDS011;25402;42.004;23.088;2022-09-17T11:58:13;3.20;;;1.40;;
39728;SDS011;25402;42.004;23.088;2022-09-17T12:00:47;7.38;;;1.80;;
39728;SDS011;25402;42.004;23.088;2022-09-17T12:03:20;6.72;;;1.60;;
39728;SDS011;25402;42.004;23.088;2022-09-17T12:05:54;5.47;;;1.88;;
39728;SDS011;25402;42.004;23.088;2022-09-17T12:08:24;4.68;;;2.28;;
39728;SDS011;25402;42.004;23.088;2022-09-17T12:11:03;4.93;;;1.73;;
39728;SDS011;25402;42.004;23.088;2022-09-17T12:13:38;4.32;;;1.83;;
39728;SDS011;25402;42.004;23.088;2022-09-17T12:18:45;5.82;;;1.60;;
39728;SDS011;25402;42.004;23.088;2022-09-17T12:21:21;4.47;;;1.63;;
39728;SDS011;25402;42.004;23.088;2022-09-17T12:23:55;5.90;;;1.70;;
39728;SDS011;25402;42.004;23.088;2022-09-17T12:26:32;3.22;;;1.60;;
39728;SDS011;25402;42.004;23.088;2022-09-17T12:29:12;3.67;;;1.75;;
39728;SDS011;25402;42.004;23.088;2022-09-17T12:31:56;4.90;;;1.50;;
39728;SDS011;25402;42.004;23.088;2022-09-17T12:34:32;5.05;;;1.42;;
39728;SDS011;25402;42.004;23.088;2022-09-17T12:37:13;6.78;;;1.70;;
39728;SDS011;25402;42.004;23.088;2022-09-17T12:39:51;6.30;;;1.90;;
39728;SDS011;25402;42.004;23.088;2022-09-17T12:42:33;11.18;;;2.20;;
39728;SDS011;25402;42.004;23.088;2022-09-17T12:48:07;7.25;;;1.67;;
39728;SDS011;25402;42.004;23.088;2022-09-17T12:51:12;2.92;;;1.23;;
39728;SDS011;25402;42.004;23.088;2022-09-17T12:53:55;5.10;;;1.40;;
39728;SDS011;25402;42.004;23.088;2022-09-17T12:56:35;3.67;;;1.50;;
39728;SDS011;25402;42.004;23.088;2022-09-17T12:59:15;2.93;;;1.23;;
39728;SDS011;25402;42.004;23.088;2022-09-17T13:01:46;3.00;;;1.60;;
39728;SDS011;25402;42.004;23.088;2022-09-17T13:04:21;3.50;;;1.52;;
39728;SDS011;25402;42.004;23.088;2022-09-17T13:07:11;1.90;;;1.05;;
39728;SDS011;25402;42.004;23.088;2022-09-17T13:12:54;4.85;;;1.60;;
39728;SDS011;25402;42.004;23.088;2022-09-17T13:18:25;4.00;;;1.60;;
39728;SDS011;25402;42.004;23.088;2022-09-17T13:20:58;4.25;;;1.70;;
39728;SDS011;25402;42.004;23.088;2022-09-17T13:23:31;6.95;;;1.77;;
39728;SDS011;25402;42.004;23.088;2022-09-17T13:26:01;5.60;;;1.67;;
39728;SDS011;25402;42.004;23.088;2022-09-17T13:28:37;5.20;;;1.35;;
39728;SDS011;25402;42.004;23.088;2022-09-17T13:31:07;5.20;;;1.65;;
39728;SDS011;25402;42.004;23.088;2022-09-17T13:36:49;5.35;;;1.65;;
39728;SDS011;25402;42.004;23.088;2022-09-17T13:39:38;17.40;;;2.03;;
39728;SDS011;25402;42.004;23.088;2022-09-17T13:42:15;13.88;;;3.25;;
39728;SDS011;25402;42.004;23.088;2022-09-17T13:44:46;17.08;;;3.10;;
39728;SDS011;25402;42.004;23.088;2022-09-17T13:47:19;5.68;;;2.47;;
39728;SDS011;25402;42.004;23.088;2022-09-17T13:49:51;10.07;;;2.22;;
39728;SDS011;25402;42.004;23.088;2022-09-17T13:57:59;9.65;;;2.40;;
39728;SDS011;25402;42.004;23.088;2022-09-17T14:15:33;5.97;;;2.00;;
39728;SDS011;25402;42.004;23.088;2022-09-17T14:18:42;9.00;;;1.92;;
39728;SDS011;25402;42.004;23.088;2022-09-17T14:21:26;9.15;;;2.35;;
39728;SDS011;25402;42.004;23.088;2022-09-17T14:23:56;9.82;;;1.90;;
39728;SDS011;25402;42.004;23.088;2022-09-17T14:26:32;7.97;;;1.80;;
39728;SDS011;25402;42.004;23.088;2022-09-17T14:29:33;3.58;;;1.50;;
39728;SDS011;25402;42.004;23.088;2022-09-17T14:32:20;4.63;;;1.00;;
39728;SDS011;25402;42.004;23.088;2022-09-17T14:34:56;5.97;;;1.40;;
39728;SDS011;25402;42.004;23.088;2022-09-17T14:37:26;6.07;;;1.27;;
39728;SDS011;25402;42.004;23.088;2022-09-17T14:39:53;7.55;;;2.10;;
39728;SDS011;25402;42.004;23.088;2022-09-17T14:42:21;4.82;;;1.55;;
39728;SDS011;25402;42.004;23.088;2022-09-17T14:44:55;3.33;;;1.23;;
39728;SDS011;25402;42.004;23.088;2022-09-17T14:47:24;9.43;;;1.53;;
39728;SDS011;25402;42.004;23.088;2022-09-17T14:49:52;9.55;;;1.40;;
39728;SDS011;25402;42.004;23.088;2022-09-17T14:52:23;3.80;;;1.38;;
39728;SDS011;25402;42.004;23.088;2022-09-17T14:55:12;6.68;;;1.65;;
39728;SDS011;25402;42.004;23.088;2022-09-17T14:57:42;4.38;;;1.20;;
39728;SDS011;25402;42.004;23.088;2022-09-17T15:13:10;2.20;;;1.15;;
39728;SDS011;25402;42.004;23.088;2022-09-17T15:15:56;4.57;;;1.30;;
39728;SDS011;25402;42.004;23.088;2022-09-17T15:18:34;5.43;;;1.35;;
39728;SDS011;25402;42.004;23.088;2022-09-17T15:21:04;8.13;;;1.30;;
39728;SDS011;25402;42.004;23.088;2022-09-17T15:23:37;6.05;;;1.55;;
39728;SDS011;25402;42.004;23.088;2022-09-17T15:26:04;5.50;;;1.38;;
39728;SDS011;25402;42.004;23.088;2022-09-17T15:28:34;3.83;;;1.10;;
39728;SDS011;25402;42.004;23.088;2022-09-17T15:31:05;8.27;;;1.63;;
39728;SDS011;25402;42.004;23.088;2022-09-17T15:33:40;3.97;;;1.90;;
39728;SDS011;25402;42.004;23.088;2022-09-17T15:36:12;5.22;;;1.90;;
39728;SDS011;25402;42.004;23.088;2022-09-17T15:38:47;5.05;;;1.55;;
39728;SDS011;25402;42.004;23.088;2022-09-17T15:41:18;5.72;;;1.42;;
39728;SDS011;25402;42.004;23.088;2022-09-17T15:46:50;5.35;;;1.70;;
39728;SDS011;25402;42.004;23.088;2022-09-17T15:49:28;4.32;;;2.00;;
39728;SDS011;25402;42.004;23.088;2022-09-17T15:54:57;8.88;;;1.75;;
39728;SDS011;25402;42.004;23.088;2022-09-17T15:57:25;4.82;;;1.88;;
39728;SDS011;25402;42.004;23.088;2022-09-17T15:59:56;3.53;;;2.35;;
39728;SDS011;25402;42.004;23.088;2022-09-17T16:02:33;9.05;;;1.80;;
39728;SDS011;25402;42.004;23.088;2022-09-17T16:08:15;11.13;;;2.05;;
39728;SDS011;25402;42.004;23.088;2022-09-17T16:10:44;3.08;;;1.52;;
39728;SDS011;25402;42.004;23.088;2022-09-17T16:13:11;11.63;;;2.25;;
39728;SDS011;25402;42.004;23.088;2022-09-17T16:15:40;5.95;;;2.30;;
39728;SDS011;25402;42.004;23.088;2022-09-17T16:18:10;6.10;;;1.85;;
39728;SDS011;25402;42.004;23.088;2022-09-17T16:20:39;4.43;;;1.92;;
39728;SDS011;25402;42.004;23.088;2022-09-17T16:23:06;7.63;;;2.15;;